createdAt,value
2017-03-18T00:00:33.824Z,6
2017-03-18T00:01:36.925Z,6
2017-03-18T00:02:39.274Z,6
2017-03-18T00:03:41.644Z,6
2017-03-18T00:04:44.495Z,6
2017-03-18T00:05:46.854Z,6
2017-03-18T00:06:50.002Z,6.1
2017-03-18T00:07:59.807Z,6.1
2017-03-18T00:08:54.618Z,6.1
2017-03-18T00:09:57.471Z,6.1
2017-03-18T00:10:59.823Z,6.1
2017-03-18T00:12:02.978Z,6.1
2017-03-18T00:13:05.329Z,6.1
2017-03-18T00:14:07.690Z,6.1
2017-03-18T00:15:10.533Z,6.1
2017-03-18T00:16:12.883Z,6
2017-03-18T00:17:15.920Z,6
2017-03-18T00:18:18.276Z,5.9
2017-03-18T00:19:21.006Z,5.8
2017-03-18T00:20:23.089Z,5.8
2017-03-18T00:21:25.813Z,5.8
2017-03-18T00:22:28.836Z,5.8
2017-03-18T00:23:31.750Z,5.8
2017-03-18T00:24:33.462Z,5.7
2017-03-18T00:25:36.316Z,5.5
2017-03-18T00:26:39.167Z,5.4
2017-03-18T00:27:41.632Z,5.3
2017-03-18T00:28:43.991Z,5.3
2017-03-18T00:29:46.845Z,5.3
2017-03-18T00:30:49.191Z,5.3
2017-03-18T00:31:52.041Z,5.3
2017-03-18T00:32:54.559Z,5.3
2017-03-18T00:33:56.781Z,5.3
2017-03-18T00:34:59.637Z,5.2
2017-03-18T00:36:02.358Z,5.1
2017-03-18T00:37:04.913Z,5
2017-03-18T00:38:07.560Z,4.9
2017-03-18T00:39:09.903Z,4.9
2017-03-18T00:40:12.752Z,4.8
2017-03-18T00:41:15.467Z,4.8
2017-03-18T00:42:17.813Z,5
2017-03-18T00:43:21.543Z,4.8
2017-03-18T00:44:22.888Z,4.8
2017-03-18T00:45:25.745Z,4.8
2017-03-18T00:46:28.092Z,5
2017-03-18T00:47:30.809Z,5.1
2017-03-18T00:48:33.326Z,5
2017-03-18T00:49:36.232Z,5
2017-03-18T00:50:38.576Z,5
2017-03-18T00:51:40.927Z,4.9
2017-03-18T00:52:43.785Z,5
2017-03-18T00:53:46.444Z,4.9
2017-03-18T00:54:48.796Z,5
2017-03-18T00:55:52.117Z,5
2017-03-18T00:56:53.960Z,5.1
2017-03-18T00:57:56.813Z,5.1
2017-03-18T00:58:59.281Z,5.1
2017-03-18T01:00:01.636Z,5.1
2017-03-18T01:01:04.491Z,5
2017-03-18T01:02:06.701Z,5
2017-03-18T01:03:09.555Z,5
2017-03-18T01:04:12.073Z,4.9
2017-03-18T01:05:14.426Z,4.9
2017-03-18T01:06:17.274Z,4.8
2017-03-18T01:07:19.619Z,4.8
2017-03-18T01:08:23.040Z,4.8
2017-03-18T01:09:25.194Z,5
2017-03-18T01:10:27.976Z,4.8
2017-03-18T01:11:30.325Z,4.8
2017-03-18T01:12:32.537Z,5
2017-03-18T01:13:35.390Z,4.9
2017-03-18T01:14:38.041Z,4.8
2017-03-18T01:15:40.385Z,4.8
2017-03-18T01:16:43.237Z,4.9
2017-03-18T01:17:45.590Z,4.8
2017-03-18T01:18:48.445Z,4.8
2017-03-18T01:19:51.046Z,5
2017-03-18T01:20:53.395Z,4.9
2017-03-18T01:21:55.742Z,4.8
2017-03-18T01:22:58.596Z,4.9
2017-03-18T01:24:00.939Z,4.9
2017-03-18T01:25:03.819Z,4.9
2017-03-18T01:26:06.034Z,4.8
2017-03-18T01:27:08.882Z,4.8
2017-03-18T01:28:11.229Z,4.8
2017-03-18T01:29:14.087Z,4.8
2017-03-18T01:30:16.742Z,4.9
2017-03-18T01:31:19.088Z,5
2017-03-18T01:32:21.825Z,4.8
2017-03-18T01:33:24.175Z,4.8
2017-03-18T01:34:27.028Z,4.9
2017-03-18T01:35:29.545Z,4.9
2017-03-18T01:36:31.895Z,4.9
2017-03-18T01:37:34.746Z,4.8
2017-03-18T01:38:37.095Z,4.8
2017-03-18T01:39:39.950Z,4.7
2017-03-18T01:40:42.552Z,4.8
2017-03-18T01:41:44.899Z,4.9
2017-03-18T01:42:47.752Z,4.6
2017-03-18T01:43:50.108Z,4.7
2017-03-18T01:44:52.459Z,4.8
2017-03-18T01:45:55.560Z,4.8
2017-03-18T01:48:00.317Z,4.8
2017-03-18T01:50:05.573Z,4.8
2017-03-18T01:51:08.223Z,4.7
2017-03-18T01:52:10.571Z,4.8
2017-03-18T01:53:13.422Z,4.8
2017-03-18T01:54:15.773Z,4.8
2017-03-18T01:55:18.490Z,4.8
2017-03-18T01:56:20.958Z,4.8
2017-03-18T01:57:23.809Z,4.8
2017-03-18T01:58:26.197Z,4.8
2017-03-18T01:59:28.550Z,4.8
2017-03-18T02:00:31.398Z,4.8
2017-03-18T02:01:34.046Z,4.7
2017-03-18T02:02:36.398Z,4.7
2017-03-18T02:03:39.119Z,4.6
2017-03-18T02:04:41.470Z,4.6
2017-03-18T02:05:44.319Z,4.6
2017-03-18T02:06:46.972Z,4.6
2017-03-18T02:07:49.190Z,4.5
2017-03-18T02:08:52.043Z,4.6
2017-03-18T02:09:54.393Z,4.6
2017-03-18T02:10:57.245Z,4.6
2017-03-18T02:11:59.849Z,4.6
2017-03-18T02:13:02.198Z,4.6
2017-03-18T02:14:04.785Z,4.5
2017-03-18T02:16:10.050Z,4.5
2017-03-18T02:17:12.704Z,4.5
2017-03-18T02:18:15.051Z,4.6
2017-03-18T02:19:17.771Z,4.6
2017-03-18T02:20:20.148Z,4.4
2017-03-18T02:21:23.000Z,4.4
2017-03-18T02:22:25.656Z,4.5
2017-03-18T02:23:28.014Z,4.5
2017-03-18T02:24:30.367Z,4.6
2017-03-18T02:26:35.491Z,4.6
2017-03-18T02:27:38.664Z,4.6
2017-03-18T02:28:40.883Z,4.5
2017-03-18T02:29:43.231Z,4.3
2017-03-18T02:30:46.079Z,4.4
2017-03-18T02:31:48.797Z,4.5
2017-03-18T02:32:51.451Z,4.5
2017-03-18T02:33:53.805Z,4.5
2017-03-18T02:34:56.150Z,4.4
2017-03-18T02:35:58.995Z,4.5
2017-03-18T02:37:01.339Z,4.5
2017-03-18T02:38:04.497Z,4.5
2017-03-18T02:39:06.345Z,4.6
2017-03-18T02:40:09.198Z,4.6
2017-03-18T02:41:11.540Z,4.5
2017-03-18T02:42:14.394Z,4.4
2017-03-18T02:43:17.425Z,4.5
2017-03-18T02:44:19.139Z,4.3
2017-03-18T02:45:21.857Z,4.5
2017-03-18T02:46:24.580Z,4.5
2017-03-18T02:47:26.923Z,4.6
2017-03-18T02:48:30.103Z,4.6
2017-03-18T02:49:32.315Z,4.5
2017-03-18T02:50:34.659Z,4.5
2017-03-18T02:51:37.376Z,4.5
2017-03-18T02:52:40.225Z,4.5
2017-03-18T02:53:42.881Z,4.6
2017-03-18T02:54:45.227Z,4.6
2017-03-18T02:55:47.576Z,4.6
2017-03-18T02:56:50.432Z,4.5
2017-03-18T02:57:52.790Z,4.6
2017-03-18T02:58:55.899Z,4.5
2017-03-18T02:59:58.259Z,4.5
2017-03-18T03:01:00.618Z,4.5
2017-03-18T03:02:02.971Z,4.6
2017-03-18T03:03:06.386Z,4.5
2017-03-18T03:04:08.398Z,4.6
2017-03-18T03:05:11.118Z,4.6
2017-03-18T03:06:13.330Z,4.5
2017-03-18T03:07:16.052Z,4.5
2017-03-18T03:08:18.546Z,4.5
2017-03-18T03:09:21.655Z,4.4
2017-03-18T03:10:24.004Z,4.5
2017-03-18T03:11:26.351Z,4.5
2017-03-18T03:12:28.701Z,4.5
2017-03-18T03:13:31.550Z,4.5
2017-03-18T03:14:34.063Z,4.5
2017-03-18T03:15:36.414Z,4.5
2017-03-18T03:16:39.265Z,4.5
2017-03-18T03:17:41.983Z,4.5
2017-03-18T03:18:44.332Z,4.5
2017-03-18T03:19:46.984Z,4.5
2017-03-18T03:20:49.767Z,4.5
2017-03-18T03:21:52.122Z,4.5
2017-03-18T03:22:54.475Z,4.5
2017-03-18T03:23:57.327Z,4.5
2017-03-18T03:24:59.980Z,4.5
2017-03-18T03:26:02.329Z,4.5
2017-03-18T03:27:04.674Z,4.5
2017-03-18T03:28:07.390Z,4.5
2017-03-18T03:29:10.239Z,4.4
2017-03-18T03:30:12.891Z,4.3
2017-03-18T03:31:15.308Z,4.3
2017-03-18T03:32:17.522Z,4.3
2017-03-18T03:33:20.241Z,4.2
2017-03-18T03:34:23.095Z,4.3
2017-03-18T03:35:25.695Z,4.3
2017-03-18T03:36:28.046Z,4.2
2017-03-18T03:37:30.985Z,4.3
2017-03-18T03:38:00.621Z,4.3
2017-03-18T03:38:33.311Z,4.2
2017-03-18T03:39:35.661Z,4.3
2017-03-18T03:40:38.769Z,4.4
2017-03-18T03:41:40.618Z,4.3
2017-03-18T03:42:43.469Z,4.3
2017-03-18T03:43:45.821Z,4.3
2017-03-18T03:44:48.731Z,4.3
2017-03-18T03:45:51.890Z,4.3
2017-03-18T03:46:53.775Z,4.3
2017-03-18T03:47:56.123Z,4.2
2017-03-18T03:48:58.980Z,4.3
2017-03-18T03:50:01.192Z,4.3
2017-03-18T03:51:04.346Z,4.4
2017-03-18T03:53:09.097Z,4.3
2017-03-18T03:54:11.444Z,4.4
2017-03-18T03:55:14.296Z,4.3
2017-03-18T03:56:16.978Z,4.3
2017-03-18T03:57:19.328Z,4.3
2017-03-18T03:58:22.175Z,4.4
2017-03-18T03:59:24.526Z,4.3
2017-03-18T04:00:26.890Z,4.5
2017-03-18T04:01:29.991Z,4.5
2017-03-18T04:02:32.786Z,4.5
2017-03-18T04:03:34.634Z,4.5
2017-03-18T04:04:37.928Z,4.5
2017-03-18T04:05:39.772Z,4.6
2017-03-18T04:06:42.926Z,4.5
2017-03-18T04:07:45.269Z,4.5
2017-03-18T04:08:47.625Z,4.5
2017-03-18T04:09:50.478Z,4.5
2017-03-18T04:10:52.835Z,4.3
2017-03-18T04:11:55.483Z,4.3
2017-03-18T04:12:57.826Z,4.4
2017-03-18T04:14:00.547Z,4.4
2017-03-18T04:15:03.460Z,4.5
2017-03-18T04:16:05.674Z,4.5
2017-03-18T04:17:08.280Z,4.5
2017-03-18T04:18:10.627Z,4.5
2017-03-18T04:19:13.348Z,4.5
2017-03-18T04:20:15.697Z,4.5
2017-03-18T04:21:18.410Z,4.5
2017-03-18T04:22:21.512Z,4.5
2017-03-18T04:23:23.866Z,4.5
2017-03-18T04:24:26.219Z,4.5
2017-03-18T04:25:28.429Z,4.5
2017-03-18T04:26:31.278Z,4.5
2017-03-18T04:27:34.389Z,4.5
2017-03-18T04:28:36.745Z,4.5
2017-03-18T04:29:38.965Z,4.5
2017-03-18T04:30:41.824Z,4.6
2017-03-18T04:31:44.183Z,4.6
2017-03-18T04:32:46.654Z,4.5
2017-03-18T04:33:49.511Z,4.5
2017-03-18T04:34:51.867Z,4.5
2017-03-18T04:35:54.720Z,4.6
2017-03-18T04:36:57.066Z,4.6
2017-03-18T04:37:59.586Z,4.6
2017-03-18T04:39:02.441Z,4.6
2017-03-18T04:40:04.784Z,4.6
2017-03-18T04:41:07.138Z,4.6
2017-03-18T04:42:09.992Z,4.6
2017-03-18T04:43:12.641Z,4.6
2017-03-18T04:44:14.994Z,4.7
2017-03-18T04:45:17.851Z,4.7
2017-03-18T04:46:20.202Z,4.8
2017-03-18T04:47:22.557Z,4.8
2017-03-18T04:48:25.577Z,4.8
2017-03-18T04:49:27.805Z,4.6
2017-03-18T04:50:30.656Z,4.7
2017-03-18T04:51:33.006Z,4.7
2017-03-18T04:52:35.862Z,4.8
2017-03-18T04:53:38.513Z,4.8
2017-03-18T04:54:40.859Z,4.8
2017-03-18T04:55:43.207Z,4.7
2017-03-18T04:58:51.039Z,4.8
2017-03-18T04:59:53.390Z,4.8
2017-03-18T05:00:56.239Z,4.8
2017-03-18T05:01:58.597Z,4.6
2017-03-18T05:03:01.452Z,4.7
2017-03-18T05:04:04.060Z,4.8
2017-03-18T05:05:06.277Z,4.7
2017-03-18T05:06:09.130Z,4.6
2017-03-18T05:07:11.474Z,4.7
2017-03-18T05:08:14.329Z,4.7
2017-03-18T05:09:16.986Z,4.8
2017-03-18T05:10:19.207Z,4.8
2017-03-18T05:11:22.060Z,4.8
2017-03-18T05:12:24.407Z,4.8
2017-03-18T05:13:26.759Z,4.8
2017-03-18T05:14:29.790Z,4.8
2017-03-18T05:15:32.139Z,4.8
2017-03-18T05:16:34.485Z,4.8
2017-03-18T05:17:37.202Z,4.7
2017-03-18T05:18:40.057Z,4.8
2017-03-18T05:19:42.711Z,4.8
2017-03-18T05:20:45.058Z,4.8
2017-03-18T05:21:47.408Z,4.8
2017-03-18T05:22:50.268Z,4.8
2017-03-18T05:23:52.618Z,4.7
2017-03-18T05:25:58.732Z,4.8
2017-03-18T05:27:00.441Z,4.7
2017-03-18T05:28:02.792Z,4.8
2017-03-18T05:29:05.644Z,4.7
2017-03-18T05:30:07.995Z,4.7
2017-03-18T05:31:11.098Z,4.8
2017-03-18T05:33:15.850Z,4.8
2017-03-18T05:34:18.571Z,4.8
2017-03-18T05:35:20.788Z,4.8
2017-03-18T05:36:23.812Z,4.8
2017-03-18T05:37:26.229Z,4.8
2017-03-18T05:38:28.446Z,4.8
2017-03-18T05:39:31.306Z,4.8
2017-03-18T05:40:33.659Z,4.8
2017-03-18T05:41:36.675Z,4.9
2017-03-18T05:42:39.025Z,4.9
2017-03-18T05:43:41.381Z,4.9
2017-03-18T05:44:44.232Z,5
2017-03-18T05:45:46.580Z,4.9
2017-03-18T05:46:49.742Z,5
2017-03-18T05:47:52.153Z,4.9
2017-03-18T05:48:54.234Z,5
2017-03-18T05:49:57.092Z,5
2017-03-18T05:50:59.304Z,5
2017-03-18T05:53:04.811Z,5
2017-03-18T05:54:07.161Z,4.9
2017-03-18T05:55:10.012Z,4.9
2017-03-18T05:56:12.363Z,5
2017-03-18T05:57:15.280Z,5
2017-03-18T05:58:17.928Z,4.8
2017-03-18T05:59:20.839Z,5
2017-03-18T06:00:22.564Z,5
2017-03-18T06:01:25.282Z,5
2017-03-18T06:02:28.137Z,5
2017-03-18T06:03:30.792Z,5
2017-03-18T06:05:35.542Z,5
2017-03-18T06:06:38.389Z,5
2017-03-18T06:09:46.356Z,5.1
2017-03-18T06:10:48.705Z,5.1
2017-03-18T06:14:58.897Z,5
2017-03-18T06:16:01.659Z,5.1
2017-03-18T06:17:04.009Z,5.1
2017-03-18T06:18:06.364Z,5.2
2017-03-18T06:20:11.738Z,5.1
2017-03-18T06:21:14.083Z,5.1
2017-03-18T06:22:16.933Z,5.1
2017-03-18T06:23:19.661Z,5.2
2017-03-18T06:24:22.024Z,5.1
2017-03-18T06:25:25.055Z,5.2
2017-03-18T06:26:27.133Z,5
2017-03-18T06:27:29.983Z,5.1
2017-03-18T06:28:32.332Z,5.1
2017-03-18T06:29:35.187Z,5.1
2017-03-18T06:30:37.788Z,5.1
2017-03-18T06:31:40.137Z,5.1
2017-03-18T06:32:43.057Z,5.1
2017-03-18T06:33:45.273Z,5.2
2017-03-18T06:34:47.623Z,5.3
2017-03-18T06:35:50.729Z,5.2
2017-03-18T06:37:55.216Z,5.3
2017-03-18T06:38:57.934Z,5.3
2017-03-18T06:40:01.211Z,5.3
2017-03-18T06:41:03.224Z,5.3
2017-03-18T06:42:05.938Z,5.3
2017-03-18T06:43:08.285Z,5.3
2017-03-18T06:44:11.132Z,5.3
2017-03-18T06:45:13.479Z,5.3
2017-03-18T06:47:18.899Z,5.3
2017-03-18T06:48:21.247Z,5.3
2017-03-18T06:49:24.104Z,5.2
2017-03-18T06:50:26.452Z,5.3
2017-03-18T06:51:29.202Z,5.3
2017-03-18T06:52:31.852Z,5.3
2017-03-18T06:53:34.209Z,5.3
2017-03-18T06:54:36.558Z,5.3
2017-03-18T06:55:39.411Z,5.4
2017-03-18T06:56:41.759Z,5.4
2017-03-18T06:57:44.870Z,5.3
2017-03-18T06:58:47.224Z,5.3
2017-03-18T06:59:49.575Z,5.4
2017-03-18T07:00:52.427Z,5.3
2017-03-18T07:01:54.810Z,5.4
2017-03-18T07:02:57.963Z,5.5
2017-03-18T07:04:00.382Z,5.5
2017-03-18T07:05:02.729Z,5.5
2017-03-18T07:06:04.939Z,5.5
2017-03-18T07:07:07.653Z,5.5
2017-03-18T07:08:10.681Z,5.5
2017-03-18T07:09:13.035Z,5.5
2017-03-18T07:10:15.382Z,5.5
2017-03-18T07:11:18.230Z,5.5
2017-03-18T07:12:20.302Z,5.5
2017-03-18T07:13:23.283Z,5.5
2017-03-18T07:14:25.499Z,5.5
2017-03-18T07:15:28.350Z,5.5
2017-03-18T07:16:31.205Z,5.6
2017-03-18T07:17:33.554Z,5.6
2017-03-18T07:18:36.715Z,5.6
2017-03-18T07:19:38.428Z,5.7
2017-03-18T07:20:41.283Z,5.6
2017-03-18T07:21:44.140Z,5.7
2017-03-18T07:22:46.489Z,5.6
2017-03-18T07:23:49.198Z,5.6
2017-03-18T07:24:51.919Z,5.6
2017-03-18T07:25:54.435Z,5.6
2017-03-18T07:26:56.785Z,5.7
2017-03-18T07:27:59.644Z,5.7
2017-03-18T07:29:02.254Z,5.8
2017-03-18T07:30:04.603Z,5.8
2017-03-18T07:31:06.951Z,5.8
2017-03-18T07:32:09.802Z,5.9
2017-03-18T07:33:12.156Z,5.9
2017-03-18T07:34:15.367Z,5.8
2017-03-18T07:35:17.585Z,5.8
2017-03-18T07:36:19.933Z,5.8
2017-03-18T07:37:22.785Z,5.9
2017-03-18T07:38:25.140Z,5.9
2017-03-18T07:40:30.698Z,5.9
2017-03-18T07:41:32.910Z,5.8
2017-03-18T07:42:35.631Z,5.9
2017-03-18T07:43:37.986Z,6
2017-03-18T07:44:40.706Z,6
2017-03-18T07:45:43.671Z,6
2017-03-18T07:46:45.887Z,6
2017-03-18T07:47:48.746Z,6
2017-03-18T07:48:51.098Z,6.1
2017-03-18T07:49:53.443Z,6.1
2017-03-18T07:50:56.596Z,6.1
2017-03-18T07:51:58.806Z,6.1
2017-03-18T07:53:01.521Z,6.1
2017-03-18T07:54:03.878Z,6.1
2017-03-18T07:55:07.290Z,6
2017-03-18T07:56:09.436Z,6
2017-03-18T07:57:11.788Z,6.1
2017-03-18T07:58:14.639Z,6.1
2017-03-18T08:01:22.605Z,6
2017-03-18T08:02:24.960Z,6.1
2017-03-18T08:03:27.309Z,6.1
2017-03-18T08:04:30.165Z,6.1
2017-03-18T08:05:32.380Z,6.2
2017-03-18T08:06:35.485Z,6.1
2017-03-18T08:07:37.838Z,6.1
2017-03-18T08:09:43.094Z,6.2
2017-03-18T08:10:45.439Z,6.3
2017-03-18T08:11:48.544Z,6.3
2017-03-18T08:12:50.393Z,6.3
2017-03-18T08:13:53.250Z,6.3
2017-03-18T08:14:55.600Z,6.3
2017-03-18T08:15:58.448Z,6.3
2017-03-18T08:17:01.047Z,6.3
2017-03-18T08:18:03.397Z,6.4
2017-03-18T08:19:06.257Z,6.4
2017-03-18T08:20:08.608Z,6.4
2017-03-18T08:21:11.460Z,6.5
2017-03-18T08:22:14.118Z,6.5
2017-03-18T08:23:16.468Z,6.5
2017-03-18T08:24:19.323Z,6.6
2017-03-18T08:25:21.676Z,6.6
2017-03-18T08:26:24.521Z,6.6
2017-03-18T08:27:27.174Z,6.7
2017-03-18T08:28:29.528Z,6.8
2017-03-18T08:29:31.878Z,6.8
2017-03-18T08:30:34.502Z,6.9
2017-03-18T08:31:37.356Z,7
2017-03-18T08:33:42.778Z,7
2017-03-18T08:34:45.031Z,7
2017-03-18T08:35:47.895Z,7.1
2017-03-18T08:36:50.241Z,7.1
2017-03-18T08:37:53.096Z,7.1
2017-03-18T08:38:55.748Z,7.2
2017-03-18T08:39:57.968Z,7.3
2017-03-18T08:41:00.820Z,7.3
2017-03-18T08:42:03.167Z,7.3
2017-03-18T08:43:06.581Z,7.4
2017-03-18T08:45:11.138Z,7.4
2017-03-18T08:46:13.489Z,7.4
2017-03-18T08:48:18.624Z,7.5
2017-03-18T08:49:21.485Z,7.5
2017-03-18T08:50:24.088Z,7.5
2017-03-18T08:51:26.433Z,7.5
2017-03-18T08:52:29.282Z,7.5
2017-03-18T08:53:31.637Z,7.6
2017-03-18T08:54:34.491Z,7.5
2017-03-18T08:55:37.379Z,7.5
2017-03-18T08:56:39.726Z,7.5
2017-03-18T08:57:41.956Z,7.5
2017-03-18T08:58:44.815Z,7.5
2017-03-18T08:59:47.225Z,7.5
2017-03-18T09:00:50.378Z,7.6
2017-03-18T09:01:52.724Z,7.7
2017-03-18T09:02:55.070Z,7.7
2017-03-18T09:03:57.787Z,7.7
2017-03-18T09:05:00.648Z,7.7
2017-03-18T09:07:06.158Z,7.7
2017-03-18T09:08:08.510Z,7.7
2017-03-18T09:09:11.424Z,7.8
2017-03-18T09:10:13.265Z,7.8
2017-03-18T09:11:16.116Z,7.8
2017-03-18T09:12:18.635Z,7.9
2017-03-18T09:13:21.491Z,8
2017-03-18T09:14:23.857Z,8.1
2017-03-18T09:15:26.715Z,8.1
2017-03-18T09:16:29.058Z,8.1
2017-03-18T09:18:34.301Z,8.1
2017-03-18T09:20:39.567Z,8.1
2017-03-18T09:21:41.921Z,8.2
2017-03-18T09:23:47.434Z,8.4
2017-03-18T09:25:52.690Z,8.5
2017-03-18T09:26:55.040Z,8.6
2017-03-18T09:27:57.761Z,8.6
2017-03-18T09:29:00.778Z,8.7
2017-03-18T09:30:02.995Z,8.7
2017-03-18T09:31:05.714Z,8.7
2017-03-18T09:32:08.629Z,8.7
2017-03-18T09:34:13.684Z,8.8
2017-03-18T09:35:16.034Z,8.9
2017-03-18T09:36:18.886Z,9
2017-03-18T09:37:21.106Z,9
2017-03-18T09:38:23.960Z,9
2017-03-18T09:39:27.120Z,9
2017-03-18T09:40:28.970Z,9
2017-03-18T09:41:31.689Z,9
2017-03-18T09:42:34.543Z,9
2017-03-18T09:43:36.759Z,9.1
2017-03-18T09:44:39.917Z,9.1
2017-03-18T09:45:42.264Z,9
2017-03-18T09:46:44.845Z,9
2017-03-18T09:47:47.708Z,9
2017-03-18T09:48:50.065Z,8.9
2017-03-18T09:49:53.037Z,8.9
2017-03-18T09:50:55.448Z,8.8
2017-03-18T09:51:57.795Z,8.8
2017-03-18T09:53:00.648Z,8.8
2017-03-18T09:54:03.497Z,8.8
2017-03-18T09:55:06.658Z,8.7
2017-03-18T09:56:08.502Z,8.7
2017-03-18T09:57:11.355Z,8.8
2017-03-18T09:58:13.704Z,8.9
2017-03-18T09:59:16.561Z,8.9
2017-03-18T10:00:19.025Z,8.8
2017-03-18T10:01:21.876Z,8.8
2017-03-18T10:02:24.086Z,8.8
2017-03-18T10:03:26.872Z,8.7
2017-03-18T10:04:29.590Z,8.6
2017-03-18T10:05:32.241Z,8.7
2017-03-18T10:06:34.645Z,8.6
2017-03-18T10:07:37.502Z,8.6
2017-03-18T10:08:39.855Z,8.6
2017-03-18T10:09:42.570Z,8.6
2017-03-18T10:10:45.721Z,8.6
2017-03-18T10:11:48.070Z,8.6
2017-03-18T10:12:50.419Z,8.6
2017-03-18T10:14:55.407Z,8.5
2017-03-18T10:15:58.880Z,8.5
2017-03-18T10:17:01.098Z,8.5
2017-03-18T10:18:03.451Z,8.6
2017-03-18T10:19:06.172Z,8.5
2017-03-18T10:20:08.761Z,8.5
2017-03-18T10:22:14.687Z,8.5
2017-03-18T10:23:16.534Z,8.5
2017-03-18T10:24:19.388Z,8.5
2017-03-18T10:25:22.109Z,8.5
2017-03-18T10:26:24.463Z,8.5
2017-03-18T10:27:27.618Z,8.5
2017-03-18T10:28:29.970Z,8.5
2017-03-18T10:29:32.323Z,8.6
2017-03-18T10:30:35.785Z,8.6
2017-03-18T10:31:37.670Z,8.6
2017-03-18T10:32:40.779Z,8.5
2017-03-18T10:33:43.136Z,8.5
2017-03-18T10:35:48.394Z,8.5
2017-03-18T10:36:51.116Z,8.5
2017-03-18T10:37:53.794Z,8.5
2017-03-18T10:38:56.010Z,8.5
2017-03-18T10:39:58.865Z,8.6
2017-03-18T10:41:01.217Z,8.6
2017-03-18T10:42:03.947Z,8.6
2017-03-18T10:43:07.052Z,8.6
2017-03-18T10:44:09.406Z,8.6
2017-03-18T10:45:11.756Z,8.5
2017-03-18T10:46:14.614Z,8.5
2017-03-18T10:48:20.124Z,8.3
2017-03-18T10:49:22.476Z,8.2
2017-03-18T10:50:24.691Z,8.2
2017-03-18T10:51:27.542Z,8.1
2017-03-18T10:52:30.391Z,8.1
2017-03-18T10:53:32.994Z,8.1
2017-03-18T10:54:35.346Z,8.1
2017-03-18T10:55:38.202Z,8.1
2017-03-18T10:56:40.418Z,8.1
2017-03-18T10:58:46.342Z,8.1
2017-03-18T10:59:49.253Z,8.2
2017-03-18T11:00:51.103Z,8.1
2017-03-18T11:01:53.819Z,8.1
2017-03-18T11:02:56.670Z,8.1
2017-03-18T11:03:59.333Z,8.1
2017-03-18T11:05:01.683Z,8.1
2017-03-18T11:06:04.536Z,8.1
2017-03-18T11:07:06.882Z,8.1
2017-03-18T11:08:09.738Z,8.1
2017-03-18T11:09:12.393Z,8.1
2017-03-18T11:10:14.744Z,8.1
2017-03-18T11:11:17.601Z,8.1
2017-03-18T11:12:19.949Z,8.1
2017-03-18T11:13:22.817Z,8.1
2017-03-18T11:14:25.425Z,8.1
2017-03-18T11:15:28.177Z,8.1
2017-03-18T11:31:07.746Z,8.4
2017-03-18T11:38:25.848Z,8.4
2017-03-18T11:43:39.133Z,8.5
2017-03-18T11:45:43.884Z,8.5
2017-03-18T11:46:46.793Z,8.5
2017-03-18T11:48:52.359Z,8.5
2017-03-18T11:49:54.713Z,8.5
2017-03-18T11:50:56.930Z,8.5
2017-03-18T11:51:59.719Z,8.5
2017-03-18T11:53:02.579Z,8.5
2017-03-18T11:56:10.542Z,8.5
2017-03-18T11:57:12.891Z,8.5
2017-03-18T11:58:15.744Z,8.5
2017-03-18T11:59:18.096Z,8.5
2017-03-18T12:00:20.948Z,8.5
2017-03-18T12:01:24.108Z,8.5
2017-03-18T12:02:25.956Z,8.5
2017-03-18T12:03:29.373Z,8.5
2017-03-18T12:04:31.220Z,8.5
2017-03-18T12:06:36.780Z,8.5
2017-03-18T12:07:39.133Z,8.5
2017-03-18T12:16:00.643Z,8.9
2017-03-18T12:17:03.618Z,9.1
2017-03-18T12:18:05.468Z,9.3
2017-03-18T12:19:08.189Z,9.5
2017-03-18T12:20:11.053Z,9.5
2017-03-18T12:21:13.705Z,9.6
2017-03-18T12:22:16.053Z,9.6
2017-03-18T12:26:26.928Z,9.8
2017-03-18T12:27:29.308Z,9.9
2017-03-18T12:30:37.478Z,10.1
2017-03-18T12:31:40.128Z,10.3
2017-03-18T12:32:42.481Z,10.3
2017-03-18T12:33:45.391Z,10.3
2017-03-18T12:34:47.771Z,10.1
2017-03-18T12:35:50.488Z,10.1
2017-03-18T12:36:53.139Z,10
2017-03-18T12:37:55.994Z,9.8
2017-03-18T12:38:58.208Z,9.8
2017-03-18T12:40:01.060Z,9.8
2017-03-18T12:41:03.916Z,10
2017-03-18T12:43:09.480Z,10.5
2017-03-18T12:44:11.706Z,10.6
2017-03-18T12:45:14.054Z,10.5
2017-03-18T12:46:16.901Z,10.5
2017-03-18T12:47:19.694Z,10.5
2017-03-18T12:48:22.908Z,10.5
2017-03-18T12:49:24.764Z,10.5
2017-03-18T12:50:27.484Z,10.4
2017-03-18T12:51:30.199Z,10.3
2017-03-18T12:52:32.545Z,10.1
2017-03-18T12:53:35.652Z,10.2
2017-03-18T12:54:38.006Z,10.1
2017-03-18T12:55:40.865Z,10
2017-03-18T12:56:43.117Z,10
2017-03-18T12:57:45.970Z,9.9
2017-03-18T12:59:51.534Z,9.7
2017-03-18T13:00:53.882Z,9.1
2017-03-18T13:01:56.600Z,8.8
2017-03-18T13:04:01.856Z,8.6
2017-03-18T13:06:07.231Z,8.6
2017-03-18T13:09:14.835Z,8.6
2017-03-18T13:10:17.554Z,8.7
2017-03-18T13:11:20.659Z,8.7
2017-03-18T13:12:22.875Z,8.8
2017-03-18T13:13:25.730Z,8.8
2017-03-18T13:14:28.087Z,9
2017-03-18T13:15:30.931Z,9.1
2017-03-18T13:16:33.398Z,9.1
2017-03-18T13:17:36.254Z,9
2017-03-18T13:18:38.471Z,9.1
2017-03-18T13:20:44.234Z,9
2017-03-18T13:23:52.202Z,9.1
2017-03-18T13:24:54.429Z,9.2
2017-03-18T13:25:57.155Z,9.2
2017-03-18T13:27:00.008Z,9.2
2017-03-18T13:28:02.363Z,9.3
2017-03-18T13:29:05.469Z,9.3
2017-03-18T13:30:07.681Z,9.3
2017-03-18T13:33:15.712Z,9.1
2017-03-18T13:34:18.316Z,9.1
2017-03-18T13:35:21.729Z,9.3
2017-03-18T13:36:23.442Z,9.4
2017-03-18T13:37:26.163Z,9.5
2017-03-18T13:38:29.023Z,9.5
2017-03-18T13:39:31.676Z,9.5
2017-03-18T13:40:34.025Z,9.6
2017-03-18T13:41:36.932Z,9.6
2017-03-18T13:42:39.293Z,9.7
2017-03-18T13:43:42.211Z,9.6
2017-03-18T13:45:47.784Z,9.6
2017-03-18T13:48:54.955Z,9.6
2017-03-18T14:01:27.035Z,9.1
2017-03-18T14:02:29.385Z,9.2
2017-03-18T14:03:32.240Z,9.3
2017-03-18T14:04:34.586Z,9.2
2017-03-18T14:05:37.435Z,9.2
2017-03-18T14:06:40.114Z,9.4
2017-03-18T14:07:42.467Z,9.3
2017-03-18T14:08:45.316Z,9.3
2017-03-18T14:09:47.663Z,9.3
2017-03-18T14:10:50.515Z,9.4
2017-03-18T14:11:53.649Z,9.4
2017-03-18T14:13:58.405Z,9.2
2017-03-18T14:15:01.267Z,9.3
2017-03-18T14:16:04.028Z,9.3
2017-03-18T14:17:06.524Z,9.4
2017-03-18T14:18:08.877Z,9.3
2017-03-18T14:19:11.738Z,9.4
2017-03-18T14:20:14.092Z,9.3
2017-03-18T14:21:16.946Z,9.3
2017-03-18T14:24:25.240Z,9.2
2017-03-18T14:25:27.590Z,9.1
2017-03-18T14:26:29.700Z,9.1
2017-03-18T14:27:32.420Z,9
2017-03-18T14:28:35.272Z,9
2017-03-18T14:29:38.289Z,9.1
2017-03-18T14:30:40.641Z,9.1
2017-03-18T14:31:42.992Z,9.1
2017-03-18T14:32:45.844Z,9.3
2017-03-18T14:33:48.197Z,9.4
2017-03-18T14:34:51.172Z,9.4
2017-03-18T14:35:53.520Z,9.4
2017-03-18T14:36:56.373Z,9.5
2017-03-18T14:37:59.228Z,9.5
2017-03-18T14:39:01.446Z,9.5
2017-03-18T14:40:04.464Z,9.3
2017-03-18T14:41:06.677Z,9.3
2017-03-18T14:42:09.404Z,9.2
2017-03-18T14:43:12.123Z,9.3
2017-03-18T14:44:14.975Z,9.3
2017-03-18T14:45:17.625Z,9.3
2017-03-18T14:46:19.980Z,9.4
2017-03-18T14:47:22.829Z,9.3
2017-03-18T14:48:25.191Z,9.3
2017-03-18T14:49:28.048Z,9.3
2017-03-18T14:50:31.068Z,9.3
2017-03-18T14:51:33.415Z,9.3
2017-03-18T14:52:35.764Z,9.3
2017-03-18T14:53:38.622Z,9.2
2017-03-18T14:54:40.972Z,9.2
2017-03-18T14:55:44.121Z,9.2
2017-03-18T14:56:46.469Z,9.2
2017-03-18T14:57:48.827Z,9.1
2017-03-18T14:58:51.737Z,9.1
2017-03-18T14:59:54.463Z,9.2
2017-03-18T15:00:57.123Z,9.2
2017-03-18T15:01:59.470Z,9.1
2017-03-18T15:03:02.330Z,9
2017-03-18T15:04:04.683Z,9
2017-03-18T15:05:07.536Z,9
2017-03-18T15:06:10.646Z,9
2017-03-18T15:07:12.724Z,9
2017-03-18T15:09:17.850Z,9
2017-03-18T15:10:20.699Z,8.9
2017-03-18T15:11:23.853Z,8.8
2017-03-18T15:12:26.063Z,8.8
2017-03-18T15:13:28.279Z,8.8
2017-03-18T15:14:31.133Z,8.7
2017-03-18T15:15:33.743Z,8.8
2017-03-18T15:16:36.844Z,8.8
2017-03-18T15:18:41.653Z,8.7
2017-03-18T15:19:44.504Z,8.8
2017-03-18T15:20:46.852Z,8.8
2017-03-18T15:21:50.010Z,8.8
2017-03-18T15:22:52.230Z,8.8
2017-03-18T15:23:54.954Z,8.7
2017-03-18T15:24:58.368Z,8.7
2017-03-18T15:26:00.074Z,8.8
2017-03-18T15:27:03.181Z,8.7
2017-03-18T15:28:05.395Z,8.6
2017-03-18T15:29:08.250Z,8.6
2017-03-18T15:30:10.602Z,8.6
2017-03-18T15:31:13.319Z,8.5
2017-03-18T15:32:16.343Z,8.6
2017-03-18T15:33:18.712Z,8.6
2017-03-18T15:35:23.866Z,8.5
2017-03-18T15:36:26.582Z,8.5
2017-03-18T15:37:29.234Z,8.5
2017-03-18T15:38:31.956Z,8.5
2017-03-18T15:39:34.301Z,8.5
2017-03-18T15:40:37.159Z,8.5
2017-03-18T15:41:39.372Z,8.5
2017-03-18T15:42:42.532Z,8.4
2017-03-18T15:43:44.887Z,8.4
2017-03-18T15:44:47.739Z,8.4
2017-03-18T15:46:52.677Z,8.3
2017-03-18T15:47:55.649Z,8.3
2017-03-18T15:48:58.241Z,8.3
2017-03-18T15:50:00.868Z,8.3
2017-03-18T15:51:03.219Z,8.3
2017-03-18T15:52:05.935Z,8.3
2017-03-18T15:53:08.955Z,8.3
2017-03-18T15:55:13.579Z,8.2
2017-03-18T15:56:16.433Z,8.1
2017-03-18T15:57:19.285Z,8.3
2017-03-18T15:58:21.936Z,8.3
2017-03-18T15:59:24.159Z,8.3
2017-03-18T16:00:27.008Z,8.3
2017-03-18T16:02:32.137Z,8.3
2017-03-18T16:03:35.110Z,8.3
2017-03-18T16:04:37.465Z,8.3
2017-03-18T16:05:40.318Z,8.2
2017-03-18T16:06:42.756Z,8.2
2017-03-18T16:07:45.473Z,8.1
2017-03-18T16:08:48.123Z,8.2
2017-03-18T16:09:50.474Z,8.2
2017-03-18T16:10:53.348Z,8.1
2017-03-18T16:11:55.561Z,8.1
2017-03-18T16:12:58.413Z,8.1
2017-03-18T16:14:01.438Z,8
2017-03-18T16:15:03.650Z,8
2017-03-18T16:16:06.923Z,8.1
2017-03-18T16:17:08.775Z,8.1
2017-03-18T16:18:11.637Z,8
2017-03-18T16:19:14.794Z,8
2017-03-18T16:20:17.141Z,8
2017-03-18T16:21:19.487Z,8
2017-03-18T16:22:22.204Z,8
2017-03-18T16:23:24.577Z,8